Terminal Aerodrome Forecast
Issued by NWS

Home | Current Version | Previous Version | Text Only | Print | Product List | Glossary On
Versions: 1 2 3 4 5 6 7 8 9 10 11 12 13 14 15 16 17 18 19 20
000
FTUS44 KOUN 292320
TAFLAW
TAF
KLAW 292320Z 3000/3024 13008KT P6SM SCT050 BKN100
      TEMPO 3003/3007 4SM TSRA BR BKN025CB
     FM300700 16006KT P6SM SCT015 BKN050
      TEMPO 3011/3015 OVC015
     FM301700 16012G18KT P6SM SCT040 BKN250=

USA.gov is the U.S. government's official web portal to all federal, state and local government web resources and services.